sensor_id;sensor_type;location;lat;lon;timestamp;P1;durP1;ratioP1;P2;durP2;ratioP2
33403;SDS011;19751;40.274;18.268;2023-07-20T00:01:37;15.52;;;9.60;;
33403;SDS011;19751;40.274;18.268;2023-07-20T00:04:03;14.52;;;10.63;;
33403;SDS011;19751;40.274;18.268;2023-07-20T00:06:28;13.80;;;10.40;;
33403;SDS011;19751;40.274;18.268;2023-07-20T00:08:54;13.20;;;10.02;;
33403;SDS011;19751;40.274;18.268;2023-07-20T00:11:21;16.40;;;10.85;;
33403;SDS011;19751;40.274;18.268;2023-07-20T00:13:50;15.32;;;11.73;;
33403;SDS011;19751;40.274;18.268;2023-07-20T00:16:15;13.57;;;10.85;;
33403;SDS011;19751;40.274;18.268;2023-07-20T00:18:41;13.40;;;10.73;;
33403;SDS011;19751;40.274;18.268;2023-07-20T00:21:06;19.20;;;11.32;;
33403;SDS011;19751;40.274;18.268;2023-07-20T00:23:32;11.98;;;10.32;;
33403;SDS011;19751;40.274;18.268;2023-07-20T00:25:57;17.92;;;10.43;;
33403;SDS011;19751;40.274;18.268;2023-07-20T00:28:23;15.27;;;10.38;;
33403;SDS011;19751;40.274;18.268;2023-07-20T00:30:48;14.80;;;10.68;;
33403;SDS011;19751;40.274;18.268;2023-07-20T00:33:16;16.45;;;11.02;;
33403;SDS011;19751;40.274;18.268;2023-07-20T00:35:43;12.65;;;10.13;;
33403;SDS011;19751;40.274;18.268;2023-07-20T00:38:08;13.23;;;10.93;;
33403;SDS011;19751;40.274;18.268;2023-07-20T00:40:37;12.48;;;10.32;;
33403;SDS011;19751;40.274;18.268;2023-07-20T00:43:03;15.20;;;10.68;;
33403;SDS011;19751;40.274;18.268;2023-07-20T00:45:29;16.48;;;11.18;;
33403;SDS011;19751;40.274;18.268;2023-07-20T00:47:56;15.35;;;10.68;;
33403;SDS011;19751;40.274;18.268;2023-07-20T00:50:23;21.90;;;12.55;;
33403;SDS011;19751;40.274;18.268;2023-07-20T00:52:50;14.18;;;11.02;;
33403;SDS011;19751;40.274;18.268;2023-07-20T00:55:16;15.80;;;11.25;;
33403;SDS011;19751;40.274;18.268;2023-07-20T00:57:42;13.30;;;10.70;;
33403;SDS011;19751;40.274;18.268;2023-07-20T01:00:08;15.52;;;11.40;;
33403;SDS011;19751;40.274;18.268;2023-07-20T01:02:34;20.38;;;11.00;;
33403;SDS011;19751;40.274;18.268;2023-07-20T01:04:59;13.10;;;11.25;;
33403;SDS011;19751;40.274;18.268;2023-07-20T01:07:36;15.40;;;10.70;;
33403;SDS011;19751;40.274;18.268;2023-07-20T01:10:08;19.60;;;11.55;;
33403;SDS011;19751;40.274;18.268;2023-07-20T01:12:45;14.15;;;10.30;;
33403;SDS011;19751;40.274;18.268;2023-07-20T01:15:12;12.23;;;10.10;;
33403;SDS011;19751;40.274;18.268;2023-07-20T01:17:38;16.17;;;10.43;;
33403;SDS011;19751;40.274;18.268;2023-07-20T01:20:05;15.13;;;10.43;;
33403;SDS011;19751;40.274;18.268;2023-07-20T01:33:41;14.27;;;10.10;;
33403;SDS011;19751;40.274;18.268;2023-07-20T01:36:08;12.75;;;11.02;;
33403;SDS011;19751;40.274;18.268;2023-07-20T01:38:35;14.05;;;10.70;;
33403;SDS011;19751;40.274;18.268;2023-07-20T01:41:01;11.80;;;10.57;;
33403;SDS011;19751;40.274;18.268;2023-07-20T01:43:27;15.68;;;10.02;;
33403;SDS011;19751;40.274;18.268;2023-07-20T01:45:53;12.95;;;10.93;;
33403;SDS011;19751;40.274;18.268;2023-07-20T01:48:18;15.00;;;10.32;;
33403;SDS011;19751;40.274;18.268;2023-07-20T01:50:44;15.48;;;10.63;;
33403;SDS011;19751;40.274;18.268;2023-07-20T01:53:10;27.42;;;12.18;;
33403;SDS011;19751;40.274;18.268;2023-07-20T01:55:36;16.83;;;11.02;;
33403;SDS011;19751;40.274;18.268;2023-07-20T01:58:02;16.83;;;10.65;;
33403;SDS011;19751;40.274;18.268;2023-07-20T02:00:28;17.25;;;11.73;;
33403;SDS011;19751;40.274;18.268;2023-07-20T02:02:54;14.90;;;10.70;;
33403;SDS011;19751;40.274;18.268;2023-07-20T02:05:19;15.20;;;11.43;;
33403;SDS011;19751;40.274;18.268;2023-07-20T02:07:45;17.02;;;11.20;;
33403;SDS011;19751;40.274;18.268;2023-07-20T02:10:10;17.70;;;11.48;;
33403;SDS011;19751;40.274;18.268;2023-07-20T02:12:36;17.27;;;12.00;;
33403;SDS011;19751;40.274;18.268;2023-07-20T02:15:02;18.17;;;11.48;;
33403;SDS011;19751;40.274;18.268;2023-07-20T02:17:28;17.02;;;11.68;;
33403;SDS011;19751;40.274;18.268;2023-07-20T02:19:54;21.33;;;13.18;;
33403;SDS011;19751;40.274;18.268;2023-07-20T02:22:20;17.23;;;12.80;;
33403;SDS011;19751;40.274;18.268;2023-07-20T02:24:46;21.02;;;12.52;;
33403;SDS011;19751;40.274;18.268;2023-07-20T02:27:12;16.55;;;12.20;;
33403;SDS011;19751;40.274;18.268;2023-07-20T02:29:38;18.25;;;12.30;;
33403;SDS011;19751;40.274;18.268;2023-07-20T02:32:06;15.80;;;11.50;;
33403;SDS011;19751;40.274;18.268;2023-07-20T02:34:31;17.60;;;13.57;;
33403;SDS011;19751;40.274;18.268;2023-07-20T02:36:57;16.42;;;12.23;;
33403;SDS011;19751;40.274;18.268;2023-07-20T02:39:24;17.45;;;13.55;;
33403;SDS011;19751;40.274;18.268;2023-07-20T02:41:49;17.88;;;13.25;;
33403;SDS011;19751;40.274;18.268;2023-07-20T02:44:15;17.27;;;11.30;;
33403;SDS011;19751;40.274;18.268;2023-07-20T02:46:40;21.52;;;12.85;;
33403;SDS011;19751;40.274;18.268;2023-07-20T02:49:06;16.33;;;13.00;;
33403;SDS011;19751;40.274;18.268;2023-07-20T02:51:32;19.08;;;12.75;;
33403;SDS011;19751;40.274;18.268;2023-07-20T02:53:57;20.02;;;13.68;;
33403;SDS011;19751;40.274;18.268;2023-07-20T02:56:23;17.27;;;12.65;;
33403;SDS011;19751;40.274;18.268;2023-07-20T02:58:48;24.92;;;11.95;;
33403;SDS011;19751;40.274;18.268;2023-07-20T03:01:14;18.08;;;12.23;;
33403;SDS011;19751;40.274;18.268;2023-07-20T03:03:40;18.95;;;12.32;;
33403;SDS011;19751;40.274;18.268;2023-07-20T03:06:06;20.08;;;13.25;;
33403;SDS011;19751;40.274;18.268;2023-07-20T03:08:34;17.13;;;11.65;;
33403;SDS011;19751;40.274;18.268;2023-07-20T03:11:00;19.95;;;12.20;;
33403;SDS011;19751;40.274;18.268;2023-07-20T03:13:26;17.50;;;11.55;;
33403;SDS011;19751;40.274;18.268;2023-07-20T03:15:52;17.48;;;12.18;;
33403;SDS011;19751;40.274;18.268;2023-07-20T03:18:18;17.35;;;11.52;;
33403;SDS011;19751;40.274;18.268;2023-07-20T03:20:43;19.17;;;12.95;;
33403;SDS011;19751;40.274;18.268;2023-07-20T03:23:10;17.67;;;12.00;;
33403;SDS011;19751;40.274;18.268;2023-07-20T03:25:35;15.73;;;11.90;;
33403;SDS011;19751;40.274;18.268;2023-07-20T03:28:02;16.58;;;11.55;;
33403;SDS011;19751;40.274;18.268;2023-07-20T03:30:28;16.70;;;11.48;;
33403;SDS011;19751;40.274;18.268;2023-07-20T03:32:53;15.00;;;12.00;;
33403;SDS011;19751;40.274;18.268;2023-07-20T03:35:19;17.48;;;12.05;;
33403;SDS011;19751;40.274;18.268;2023-07-20T03:37:45;18.60;;;11.45;;
33403;SDS011;19751;40.274;18.268;2023-07-20T03:40:10;13.75;;;10.93;;
33403;SDS011;19751;40.274;18.268;2023-07-20T03:42:36;16.02;;;11.73;;
33403;SDS011;19751;40.274;18.268;2023-07-20T03:45:01;19.40;;;11.75;;
33403;SDS011;19751;40.274;18.268;2023-07-20T03:47:28;14.95;;;11.02;;
33403;SDS011;19751;40.274;18.268;2023-07-20T03:49:53;16.48;;;11.32;;
33403;SDS011;19751;40.274;18.268;2023-07-20T03:52:19;16.02;;;11.63;;
33403;SDS011;19751;40.274;18.268;2023-07-20T03:54:44;14.38;;;11.68;;
33403;SDS011;19751;40.274;18.268;2023-07-20T03:57:10;16.73;;;11.75;;
33403;SDS011;19751;40.274;18.268;2023-07-20T03:59:36;25.05;;;11.77;;
33403;SDS011;19751;40.274;18.268;2023-07-20T04:02:02;17.02;;;12.02;;
33403;SDS011;19751;40.274;18.268;2023-07-20T04:04:30;24.20;;;11.45;;
33403;SDS011;19751;40.274;18.268;2023-07-20T04:06:55;17.17;;;12.38;;
33403;SDS011;19751;40.274;18.268;2023-07-20T04:09:21;16.35;;;11.20;;
33403;SDS011;19751;40.274;18.268;2023-07-20T04:11:46;16.00;;;11.10;;
33403;SDS011;19751;40.274;18.268;2023-07-20T04:14:12;18.52;;;11.32;;
33403;SDS011;19751;40.274;18.268;2023-07-20T04:16:37;15.50;;;11.30;;
33403;SDS011;19751;40.274;18.268;2023-07-20T04:19:03;16.25;;;10.90;;
33403;SDS011;19751;40.274;18.268;2023-07-20T04:21:28;15.88;;;10.75;;
33403;SDS011;19751;40.274;18.268;2023-07-20T04:23:54;11.80;;;9.75;;
33403;SDS011;19751;40.274;18.268;2023-07-20T04:26:19;15.75;;;10.80;;
33403;SDS011;19751;40.274;18.268;2023-07-20T04:28:45;15.45;;;11.23;;
33403;SDS011;19751;40.274;18.268;2023-07-20T04:31:14;24.02;;;11.88;;
33403;SDS011;19751;40.274;18.268;2023-07-20T04:33:40;17.48;;;10.57;;
33403;SDS011;19751;40.274;18.268;2023-07-20T04:36:06;17.50;;;10.20;;
33403;SDS011;19751;40.274;18.268;2023-07-20T04:38:32;15.02;;;10.43;;
33403;SDS011;19751;40.274;18.268;2023-07-20T04:40:58;17.70;;;9.95;;
33403;SDS011;19751;40.274;18.268;2023-07-20T04:43:23;16.83;;;9.80;;
33403;SDS011;19751;40.274;18.268;2023-07-20T04:45:49;22.52;;;11.60;;
33403;SDS011;19751;40.274;18.268;2023-07-20T04:48:15;17.83;;;10.15;;
33403;SDS011;19751;40.274;18.268;2023-07-20T04:50:43;16.27;;;10.13;;
33403;SDS011;19751;40.274;18.268;2023-07-20T04:53:10;14.65;;;9.93;;
33403;SDS011;19751;40.274;18.268;2023-07-20T04:55:37;14.45;;;10.07;;
33403;SDS011;19751;40.274;18.268;2023-07-20T04:58:03;15.00;;;10.40;;
33403;SDS011;19751;40.274;18.268;2023-07-20T05:00:29;18.33;;;11.40;;
33403;SDS011;19751;40.274;18.268;2023-07-20T05:02:55;18.17;;;10.85;;
33403;SDS011;19751;40.274;18.268;2023-07-20T05:05:21;23.13;;;12.07;;
33403;SDS011;19751;40.274;18.268;2023-07-20T05:07:47;23.20;;;11.57;;
33403;SDS011;19751;40.274;18.268;2023-07-20T05:10:12;17.38;;;10.35;;
33403;SDS011;19751;40.274;18.268;2023-07-20T05:12:38;14.02;;;10.48;;
33403;SDS011;19751;40.274;18.268;2023-07-20T05:15:04;21.50;;;11.63;;
33403;SDS011;19751;40.274;18.268;2023-07-20T05:17:30;19.50;;;11.90;;
33403;SDS011;19751;40.274;18.268;2023-07-20T05:19:55;16.77;;;10.25;;
33403;SDS011;19751;40.274;18.268;2023-07-20T05:22:21;17.10;;;10.07;;
33403;SDS011;19751;40.274;18.268;2023-07-20T05:24:47;13.82;;;9.25;;
33403;SDS011;19751;40.274;18.268;2023-07-20T05:27:12;13.00;;;9.65;;
33403;SDS011;19751;40.274;18.268;2023-07-20T05:29:37;13.98;;;9.52;;
33403;SDS011;19751;40.274;18.268;2023-07-20T05:32:08;20.10;;;9.07;;
33403;SDS011;19751;40.274;18.268;2023-07-20T05:34:34;15.55;;;9.25;;
33403;SDS011;19751;40.274;18.268;2023-07-20T05:37:00;18.98;;;9.13;;
33403;SDS011;19751;40.274;18.268;2023-07-20T05:39:26;11.98;;;8.50;;
33403;SDS011;19751;40.274;18.268;2023-07-20T05:41:51;11.95;;;7.82;;
33403;SDS011;19751;40.274;18.268;2023-07-20T05:51:01;11.38;;;7.75;;
33403;SDS011;19751;40.274;18.268;2023-07-20T05:53:26;16.73;;;8.27;;
33403;SDS011;19751;40.274;18.268;2023-07-20T05:55:52;8.43;;;6.75;;
33403;SDS011;19751;40.274;18.268;2023-07-20T05:58:18;18.15;;;8.45;;
33403;SDS011;19751;40.274;18.268;2023-07-20T06:00:47;10.30;;;7.32;;
33403;SDS011;19751;40.274;18.268;2023-07-20T06:03:13;8.95;;;7.20;;
33403;SDS011;19751;40.274;18.268;2023-07-20T06:05:38;12.35;;;7.28;;
33403;SDS011;19751;40.274;18.268;2023-07-20T06:08:04;16.63;;;7.80;;
33403;SDS011;19751;40.274;18.268;2023-07-20T06:10:30;14.68;;;8.50;;
33403;SDS011;19751;40.274;18.268;2023-07-20T06:12:55;22.38;;;8.07;;
33403;SDS011;19751;40.274;18.268;2023-07-20T06:15:24;12.60;;;8.10;;
33403;SDS011;19751;40.274;18.268;2023-07-20T06:17:51;17.95;;;6.88;;
33403;SDS011;19751;40.274;18.268;2023-07-20T06:20:16;14.98;;;8.38;;
33403;SDS011;19751;40.274;18.268;2023-07-20T06:22:43;21.20;;;9.40;;
33403;SDS011;19751;40.274;18.268;2023-07-20T06:25:09;10.95;;;7.55;;
33403;SDS011;19751;40.274;18.268;2023-07-20T06:27:35;18.65;;;7.90;;
33403;SDS011;19751;40.274;18.268;2023-07-20T06:30:01;17.40;;;7.32;;
33403;SDS011;19751;40.274;18.268;2023-07-20T06:32:27;14.98;;;6.97;;
33403;SDS011;19751;40.274;18.268;2023-07-20T06:34:52;12.15;;;6.65;;
33403;SDS011;19751;40.274;18.268;2023-07-20T06:37:18;8.20;;;6.53;;
33403;SDS011;19751;40.274;18.268;2023-07-20T06:39:45;8.32;;;6.18;;
33403;SDS011;19751;40.274;18.268;2023-07-20T06:42:11;16.27;;;6.72;;
33403;SDS011;19751;40.274;18.268;2023-07-20T06:44:36;20.52;;;9.40;;
33403;SDS011;19751;40.274;18.268;2023-07-20T06:47:02;25.58;;;8.43;;
33403;SDS011;19751;40.274;18.268;2023-07-20T06:49:28;19.00;;;8.15;;
33403;SDS011;19751;40.274;18.268;2023-07-20T06:51:53;7.50;;;5.70;;
33403;SDS011;19751;40.274;18.268;2023-07-20T06:54:19;14.00;;;7.55;;
33403;SDS011;19751;40.274;18.268;2023-07-20T06:56:45;12.68;;;5.80;;
33403;SDS011;19751;40.274;18.268;2023-07-20T06:59:10;11.73;;;6.10;;
33403;SDS011;19751;40.274;18.268;2023-07-20T07:01:36;10.98;;;5.40;;
33403;SDS011;19751;40.274;18.268;2023-07-20T07:04:02;9.80;;;5.03;;
33403;SDS011;19751;40.274;18.268;2023-07-20T07:06:28;10.80;;;5.80;;
33403;SDS011;19751;40.274;18.268;2023-07-20T07:08:54;9.35;;;5.95;;
33403;SDS011;19751;40.274;18.268;2023-07-20T07:11:20;14.02;;;6.47;;
33403;SDS011;19751;40.274;18.268;2023-07-20T07:13:46;9.85;;;5.35;;
33403;SDS011;19751;40.274;18.268;2023-07-20T07:16:12;11.80;;;5.72;;
33403;SDS011;19751;40.274;18.268;2023-07-20T07:18:39;7.15;;;4.75;;
33403;SDS011;19751;40.274;18.268;2023-07-20T07:21:05;6.07;;;5.30;;
33403;SDS011;19751;40.274;18.268;2023-07-20T07:23:30;7.38;;;5.07;;
33403;SDS011;19751;40.274;18.268;2023-07-20T07:25:56;6.40;;;4.88;;
33403;SDS011;19751;40.274;18.268;2023-07-20T07:28:22;13.68;;;6.72;;
33403;SDS011;19751;40.274;18.268;2023-07-20T07:30:47;13.50;;;5.85;;
33403;SDS011;19751;40.274;18.268;2023-07-20T07:33:13;17.02;;;6.45;;
33403;SDS011;19751;40.274;18.268;2023-07-20T07:35:38;12.10;;;6.38;;
33403;SDS011;19751;40.274;18.268;2023-07-20T07:38:04;9.43;;;6.15;;
33403;SDS011;19751;40.274;18.268;2023-07-20T07:40:31;12.93;;;5.95;;
33403;SDS011;19751;40.274;18.268;2023-07-20T07:42:57;18.58;;;6.90;;
33403;SDS011;19751;40.274;18.268;2023-07-20T07:45:22;19.55;;;7.00;;
33403;SDS011;19751;40.274;18.268;2023-07-20T07:47:48;20.77;;;5.82;;
33403;SDS011;19751;40.274;18.268;2023-07-20T07:50:13;12.88;;;5.97;;
33403;SDS011;19751;40.274;18.268;2023-07-20T07:52:39;13.82;;;5.82;;
33403;SDS011;19751;40.274;18.268;2023-07-20T07:55:04;16.67;;;6.38;;
33403;SDS011;19751;40.274;18.268;2023-07-20T07:57:30;10.48;;;5.40;;
33403;SDS011;19751;40.274;18.268;2023-07-20T07:59:56;11.20;;;5.40;;
33403;SDS011;19751;40.274;18.268;2023-07-20T08:02:21;11.52;;;5.03;;
33403;SDS011;19751;40.274;18.268;2023-07-20T08:04:47;11.48;;;5.55;;
33403;SDS011;19751;40.274;18.268;2023-07-20T08:07:12;6.53;;;4.40;;
33403;SDS011;19751;40.274;18.268;2023-07-20T08:09:38;7.28;;;4.90;;
33403;SDS011;19751;40.274;18.268;2023-07-20T08:12:03;19.75;;;6.85;;
33403;SDS011;19751;40.274;18.268;2023-07-20T08:14:29;14.23;;;5.65;;
33403;SDS011;19751;40.274;18.268;2023-07-20T08:16:55;16.02;;;6.10;;
33403;SDS011;19751;40.274;18.268;2023-07-20T08:19:20;17.50;;;7.53;;
33403;SDS011;19751;40.274;18.268;2023-07-20T08:21:46;15.60;;;6.95;;
33403;SDS011;19751;40.274;18.268;2023-07-20T08:24:11;10.18;;;5.75;;
33403;SDS011;19751;40.274;18.268;2023-07-20T08:26:37;18.13;;;6.82;;
33403;SDS011;19751;40.274;18.268;2023-07-20T08:29:02;21.02;;;7.07;;
33403;SDS011;19751;40.274;18.268;2023-07-20T08:31:28;19.58;;;7.10;;
33403;SDS011;19751;40.274;18.268;2023-07-20T08:33:53;16.52;;;7.03;;
33403;SDS011;19751;40.274;18.268;2023-07-20T08:36:19;12.10;;;5.78;;
33403;SDS011;19751;40.274;18.268;2023-07-20T08:38:44;17.63;;;6.00;;
33403;SDS011;19751;40.274;18.268;2023-07-20T08:41:10;9.75;;;6.05;;
33403;SDS011;19751;40.274;18.268;2023-07-20T08:43:36;14.27;;;6.10;;
33403;SDS011;19751;40.274;18.268;2023-07-20T08:46:06;16.42;;;6.80;;
33403;SDS011;19751;40.274;18.268;2023-07-20T08:48:32;9.93;;;4.80;;
33403;SDS011;19751;40.274;18.268;2023-07-20T08:50:58;8.82;;;5.50;;
33403;SDS011;19751;40.274;18.268;2023-07-20T08:53:26;13.52;;;5.65;;
33403;SDS011;19751;40.274;18.268;2023-07-20T08:55:54;15.43;;;5.22;;
33403;SDS011;19751;40.274;18.268;2023-07-20T08:58:20;10.18;;;5.18;;
33403;SDS011;19751;40.274;18.268;2023-07-20T09:00:45;13.07;;;5.35;;
33403;SDS011;19751;40.274;18.268;2023-07-20T09:03:15;8.07;;;5.05;;
33403;SDS011;19751;40.274;18.268;2023-07-20T09:05:41;11.45;;;5.07;;
33403;SDS011;19751;40.274;18.268;2023-07-20T09:08:06;9.88;;;4.82;;
33403;SDS011;19751;40.274;18.268;2023-07-20T09:10:32;13.07;;;6.28;;
33403;SDS011;19751;40.274;18.268;2023-07-20T09:12:58;11.05;;;5.85;;
33403;SDS011;19751;40.274;18.268;2023-07-20T09:15:23;13.80;;;6.28;;
33403;SDS011;19751;40.274;18.268;2023-07-20T09:17:50;12.75;;;6.03;;
33403;SDS011;19751;40.274;18.268;2023-07-20T09:20:17;13.60;;;6.47;;
33403;SDS011;19751;40.274;18.268;2023-07-20T09:22:43;15.23;;;6.18;;
33403;SDS011;19751;40.274;18.268;2023-07-20T09:25:13;9.98;;;5.60;;
33403;SDS011;19751;40.274;18.268;2023-07-20T09:27:40;9.55;;;4.88;;
33403;SDS011;19751;40.274;18.268;2023-07-20T09:30:10;15.35;;;5.20;;
33403;SDS011;19751;40.274;18.268;2023-07-20T09:32:42;10.90;;;4.38;;
33403;SDS011;19751;40.274;18.268;2023-07-20T09:35:15;10.73;;;5.03;;
33403;SDS011;19751;40.274;18.268;2023-07-20T09:37:55;10.17;;;4.10;;
33403;SDS011;19751;40.274;18.268;2023-07-20T09:40:24;8.50;;;4.65;;
33403;SDS011;19751;40.274;18.268;2023-07-20T09:42:51;12.80;;;4.53;;
33403;SDS011;19751;40.274;18.268;2023-07-20T09:45:19;10.77;;;4.78;;
33403;SDS011;19751;40.274;18.268;2023-07-20T09:47:45;18.38;;;6.05;;
33403;SDS011;19751;40.274;18.268;2023-07-20T09:50:10;10.77;;;4.85;;
33403;SDS011;19751;40.274;18.268;2023-07-20T09:52:40;11.98;;;4.63;;
33403;SDS011;19751;40.274;18.268;2023-07-20T09:55:07;17.35;;;4.88;;
33403;SDS011;19751;40.274;18.268;2023-07-20T09:57:33;14.20;;;5.07;;
33403;SDS011;19751;40.274;18.268;2023-07-20T10:00:01;15.10;;;5.00;;
33403;SDS011;19751;40.274;18.268;2023-07-20T10:02:33;10.45;;;4.15;;
33403;SDS011;19751;40.274;18.268;2023-07-20T10:05:00;13.15;;;5.30;;
33403;SDS011;19751;40.274;18.268;2023-07-20T10:07:29;9.10;;;4.82;;
33403;SDS011;19751;40.274;18.268;2023-07-20T10:09:56;17.13;;;5.53;;
33403;SDS011;19751;40.274;18.268;2023-07-20T10:12:26;10.30;;;5.05;;
33403;SDS011;19751;40.274;18.268;2023-07-20T10:14:54;9.07;;;5.03;;
33403;SDS011;19751;40.274;18.268;2023-07-20T10:17:35;14.00;;;5.20;;
33403;SDS011;19751;40.274;18.268;2023-07-20T10:20:05;12.13;;;4.75;;
33403;SDS011;19751;40.274;18.268;2023-07-20T10:22:34;20.48;;;6.55;;
33403;SDS011;19751;40.274;18.268;2023-07-20T10:25:01;10.25;;;4.50;;
33403;SDS011;19751;40.274;18.268;2023-07-20T10:27:27;18.08;;;4.93;;
33403;SDS011;19751;40.274;18.268;2023-07-20T10:29:53;10.63;;;5.43;;
33403;SDS011;19751;40.274;18.268;2023-07-20T10:32:20;14.35;;;5.50;;
33403;SDS011;19751;40.274;18.268;2023-07-20T10:34:50;10.15;;;5.13;;
33403;SDS011;19751;40.274;18.268;2023-07-20T10:42:57;10.13;;;4.53;;
33403;SDS011;19751;40.274;18.268;2023-07-20T10:48:22;9.77;;;4.53;;
33403;SDS011;19751;40.274;18.268;2023-07-20T10:51:08;11.98;;;4.80;;
33403;SDS011;19751;40.274;18.268;2023-07-20T10:53:33;11.23;;;5.43;;
33403;SDS011;19751;40.274;18.268;2023-07-20T10:56:33;11.55;;;6.07;;
33403;SDS011;19751;40.274;18.268;2023-07-20T10:58:58;12.50;;;6.38;;
33403;SDS011;19751;40.274;18.268;2023-07-20T11:01:29;13.90;;;5.43;;
33403;SDS011;19751;40.274;18.268;2023-07-20T11:03:58;10.23;;;5.53;;
33403;SDS011;19751;40.274;18.268;2023-07-20T11:11:29;8.75;;;5.00;;
33403;SDS011;19751;40.274;18.268;2023-07-20T11:14:05;13.55;;;5.45;;
33403;SDS011;19751;40.274;18.268;2023-07-20T11:16:41;9.02;;;5.18;;
33403;SDS011;19751;40.274;18.268;2023-07-20T11:21:51;10.68;;;5.13;;
33403;SDS011;19751;40.274;18.268;2023-07-20T11:24:18;11.63;;;5.15;;
33403;SDS011;19751;40.274;18.268;2023-07-20T11:26:47;9.80;;;5.28;;
33403;SDS011;19751;40.274;18.268;2023-07-20T11:29:13;14.55;;;5.43;;
33403;SDS011;19751;40.274;18.268;2023-07-20T11:31:41;11.52;;;5.90;;
33403;SDS011;19751;40.274;18.268;2023-07-20T11:34:12;12.18;;;5.10;;
33403;SDS011;19751;40.274;18.268;2023-07-20T11:36:39;9.27;;;4.78;;
33403;SDS011;19751;40.274;18.268;2023-07-20T11:39:09;8.38;;;4.72;;
33403;SDS011;19751;40.274;18.268;2023-07-20T11:41:36;17.88;;;5.90;;
33403;SDS011;19751;40.274;18.268;2023-07-20T11:44:03;10.52;;;4.95;;
33403;SDS011;19751;40.274;18.268;2023-07-20T11:46:31;6.78;;;5.00;;
33403;SDS011;19751;40.274;18.268;2023-07-20T11:49:00;12.65;;;5.32;;
33403;SDS011;19751;40.274;18.268;2023-07-20T11:51:29;9.90;;;5.60;;
33403;SDS011;19751;40.274;18.268;2023-07-20T11:53:55;13.55;;;4.93;;
33403;SDS011;19751;40.274;18.268;2023-07-20T11:56:22;11.00;;;5.85;;
33403;SDS011;19751;40.274;18.268;2023-07-20T11:58:48;9.35;;;5.70;;
33403;SDS011;19751;40.274;18.268;2023-07-20T12:01:14;9.45;;;5.45;;
33403;SDS011;19751;40.274;18.268;2023-07-20T12:03:43;10.73;;;6.35;;
33403;SDS011;19751;40.274;18.268;2023-07-20T12:06:09;10.23;;;5.65;;
33403;SDS011;19751;40.274;18.268;2023-07-20T12:08:42;7.68;;;4.57;;
33403;SDS011;19751;40.274;18.268;2023-07-20T12:11:09;7.88;;;4.57;;
33403;SDS011;19751;40.274;18.268;2023-07-20T12:13:35;21.75;;;5.63;;
33403;SDS011;19751;40.274;18.268;2023-07-20T12:16:16;16.00;;;7.20;;
33403;SDS011;19751;40.274;18.268;2023-07-20T12:18:45;16.40;;;5.82;;
33403;SDS011;19751;40.274;18.268;2023-07-20T12:21:10;25.52;;;6.10;;
33403;SDS011;19751;40.274;18.268;2023-07-20T12:23:40;15.82;;;5.47;;
33403;SDS011;19751;40.274;18.268;2023-07-20T12:26:06;17.92;;;6.50;;
33403;SDS011;19751;40.274;18.268;2023-07-20T12:28:35;14.43;;;5.95;;
33403;SDS011;19751;40.274;18.268;2023-07-20T12:31:04;13.63;;;6.05;;
33403;SDS011;19751;40.274;18.268;2023-07-20T12:33:30;12.52;;;5.65;;
33403;SDS011;19751;40.274;18.268;2023-07-20T12:35:55;9.45;;;4.72;;
33403;SDS011;19751;40.274;18.268;2023-07-20T12:38:23;18.95;;;5.18;;
33403;SDS011;19751;40.274;18.268;2023-07-20T12:40:49;18.23;;;5.25;;
33403;SDS011;19751;40.274;18.268;2023-07-20T12:43:14;19.05;;;5.82;;
33403;SDS011;19751;40.274;18.268;2023-07-20T12:45:40;11.93;;;5.53;;
33403;SDS011;19751;40.274;18.268;2023-07-20T12:48:06;13.50;;;5.32;;
33403;SDS011;19751;40.274;18.268;2023-07-20T12:50:32;12.43;;;6.03;;
33403;SDS011;19751;40.274;18.268;2023-07-20T12:52:57;11.50;;;5.25;;
33403;SDS011;19751;40.274;18.268;2023-07-20T12:55:22;12.57;;;5.82;;
33403;SDS011;19751;40.274;18.268;2023-07-20T12:57:48;11.93;;;6.05;;
33403;SDS011;19751;40.274;18.268;2023-07-20T13:00:14;8.82;;;4.93;;
33403;SDS011;19751;40.274;18.268;2023-07-20T13:02:40;19.92;;;6.55;;
33403;SDS011;19751;40.274;18.268;2023-07-20T13:05:06;15.05;;;5.80;;
33403;SDS011;19751;40.274;18.268;2023-07-20T13:07:36;10.52;;;5.53;;
33403;SDS011;19751;40.274;18.268;2023-07-20T13:10:03;17.67;;;6.13;;
33403;SDS011;19751;40.274;18.268;2023-07-20T13:12:30;13.77;;;5.63;;
33403;SDS011;19751;40.274;18.268;2023-07-20T13:14:57;12.00;;;5.40;;
33403;SDS011;19751;40.274;18.268;2023-07-20T13:17:26;13.15;;;5.55;;
33403;SDS011;19751;40.274;18.268;2023-07-20T13:19:52;11.70;;;5.05;;
33403;SDS011;19751;40.274;18.268;2023-07-20T13:22:17;13.88;;;6.22;;
33403;SDS011;19751;40.274;18.268;2023-07-20T13:24:44;14.40;;;5.85;;
33403;SDS011;19751;40.274;18.268;2023-07-20T13:27:12;11.65;;;5.28;;
33403;SDS011;19751;40.274;18.268;2023-07-20T13:29:37;16.15;;;6.13;;
33403;SDS011;19751;40.274;18.268;2023-07-20T13:32:03;13.82;;;5.60;;
33403;SDS011;19751;40.274;18.268;2023-07-20T13:34:30;16.08;;;6.07;;
33403;SDS011;19751;40.274;18.268;2023-07-20T13:36:55;15.00;;;5.28;;
33403;SDS011;19751;40.274;18.268;2023-07-20T13:39:21;10.25;;;5.05;;
33403;SDS011;19751;40.274;18.268;2023-07-20T13:41:49;14.40;;;5.93;;
33403;SDS011;19751;40.274;18.268;2023-07-20T13:44:15;15.50;;;5.32;;
33403;SDS011;19751;40.274;18.268;2023-07-20T13:46:40;10.40;;;4.80;;
33403;SDS011;19751;40.274;18.268;2023-07-20T13:49:06;9.32;;;5.30;;
33403;SDS011;19751;40.274;18.268;2023-07-20T13:51:31;12.07;;;5.95;;
33403;SDS011;19751;40.274;18.268;2023-07-20T13:53:57;12.85;;;5.10;;
33403;SDS011;19751;40.274;18.268;2023-07-20T13:56:23;15.32;;;5.07;;
33403;SDS011;19751;40.274;18.268;2023-07-20T13:58:49;15.48;;;5.88;;
33403;SDS011;19751;40.274;18.268;2023-07-20T14:01:16;13.70;;;5.40;;
33403;SDS011;19751;40.274;18.268;2023-07-20T14:03:42;8.95;;;4.38;;
33403;SDS011;19751;40.274;18.268;2023-07-20T14:06:08;17.05;;;6.07;;
33403;SDS011;19751;40.274;18.268;2023-07-20T14:08:34;11.60;;;5.82;;
33403;SDS011;19751;40.274;18.268;2023-07-20T14:11:00;19.20;;;5.25;;
33403;SDS011;19751;40.274;18.268;2023-07-20T14:13:26;12.23;;;5.45;;
33403;SDS011;19751;40.274;18.268;2023-07-20T14:15:52;11.13;;;4.90;;
33403;SDS011;19751;40.274;18.268;2023-07-20T14:18:17;16.48;;;5.20;;
33403;SDS011;19751;40.274;18.268;2023-07-20T14:20:43;10.70;;;5.40;;
33403;SDS011;19751;40.274;18.268;2023-07-20T14:23:09;15.07;;;5.50;;
33403;SDS011;19751;40.274;18.268;2023-07-20T14:25:35;11.90;;;5.28;;
33403;SDS011;19751;40.274;18.268;2023-07-20T14:28:00;13.55;;;5.15;;
33403;SDS011;19751;40.274;18.268;2023-07-20T14:30:26;11.10;;;6.15;;
33403;SDS011;19751;40.274;18.268;2023-07-20T14:32:52;13.55;;;6.43;;
33403;SDS011;19751;40.274;18.268;2023-07-20T14:35:18;13.20;;;5.07;;
33403;SDS011;19751;40.274;18.268;2023-07-20T14:37:43;9.30;;;4.38;;
33403;SDS011;19751;40.274;18.268;2023-07-20T14:40:12;8.13;;;4.90;;
33403;SDS011;19751;40.274;18.268;2023-07-20T14:42:38;8.70;;;5.10;;
33403;SDS011;19751;40.274;18.268;2023-07-20T14:45:04;6.55;;;4.15;;
33403;SDS011;19751;40.274;18.268;2023-07-20T14:47:30;9.13;;;4.60;;
33403;SDS011;19751;40.274;18.268;2023-07-20T14:50:00;11.00;;;5.38;;